FW2514 Weather Reports


Display with metric or nautical units.
time (UTC)temp
F
wind
direction
speed
MPH
gust
MPH
rain 1hr
in
rain 24hr
in
rain mn
in
humidity
%
barometer
mb
20260508174544 74 197 0.0 4.0 0.00 0.00 0.00 25 1017.0
20260508173038 72 93 1.0 9.0 0.00 0.00 0.00 28 1017.3
20260508171537 71 242 3.0 5.0 0.00 0.00 0.00 28 1017.4
20260508170039 70 130 3.0 9.0 0.00 0.00 0.00 27 1017.7
20260508164533 70 222 3.0 7.0 0.00 0.00 0.00 27 1018.0
20260508163032 70 355 1.0 4.0 0.00 0.00 0.00 27 1017.9
20260508161532 68 315 0.0 5.0 0.00 0.00 0.00 30 1018.2
20260508160030 69 167 0.0 5.0 0.00 0.00 0.00 28 1018.5
20260508154524 68 182 1.0 5.0 0.00 0.00 0.00 30 1018.7
20260508153024 67 165 1.0 3.0 0.00 0.00 0.00 30 1018.8
20260508151524 66 299 0.0 4.0 0.00 0.00 0.00 33 1018.9
20260508150023 66 355 1.0 5.0 0.00 0.00 0.00 33 1018.8
20260508144541 65 174 1.0 3.0 0.00 0.00 0.00 35 1018.9
20260508143015 63 66 0.0 4.0 0.00 0.00 0.00 38 1019.0
20260508141515 63 107 1.0 5.0 0.00 0.00 0.00 37 1019.2
20260508140013 62 309 2.0 5.0 0.00 0.00 0.00 36 1019.2
20260508134510 61 13 2.0 6.0 0.00 0.00 0.00 36 1019.0
20260508133014 61 347 2.0 4.0 0.00 0.00 0.00 42 1019.1
20260508131509 61 306 1.0 4.0 0.00 0.00 0.00 44 1019.0
20260508130006 60 53 0.0 3.0 0.00 0.00 0.00 45 1018.9
20260508124504 59 18 1.0 3.0 0.00 0.00 0.00 49 1018.8
20260508123111 56 360 0.0 5.0 0.00 0.00 0.00 53 1018.5
20260508121602 54 360 2.0 5.0 0.00 0.00 0.00 53 1018.5
20260508120055 53 360 0.0 3.0 0.00 0.00 0.00 54 1018.2
20260508114552 50 293 0.0 3.0 0.00 0.00 0.00 54 1018.0
20260508113105 49 360 0.0 0.0 0.00 0.00 0.00 57 1017.6
20260508111549 48 360 0.0 1.0 0.00 0.00 0.00 59 1017.5
20260508110053 46 360 0.0 0.0 0.00 0.00 0.00 60 1017.2
20260508104544 46 360 0.0 0.0 0.00 0.00 0.00 59 1017.0
20260508103052 46 360 0.0 0.0 0.00 0.00 0.00 59 1016.6
20260508101541 47 306 0.0 0.0 0.00 0.00 0.00 59 1016.3
20260508100037 47 360 0.0 0.0 0.00 0.00 0.00 59 1016.2
20260508094535 48 360 0.0 0.0 0.00 0.00 0.00 58 1016.1
20260508093036 48 360 0.0 1.0 0.00 0.00 0.00 58 1016.0
20260508091531 49 360 0.0 2.0 0.00 0.00 0.00 58 1015.7
20260508090031 49 360 0.0 1.0 0.00 0.00 0.00 58 1015.7
20260508084530 49 360 0.0 2.0 0.00 0.00 0.00 58 1015.7
20260508083037 49 360 0.0 0.0 0.00 0.00 0.00 59 1015.6
20260508081528 49 360 0.0 0.0 0.00 0.00 0.00 59 1015.4
20260508080026 49 360 0.0 0.0 0.00 0.00 0.00 58 1015.5
20260508074533 49 360 0.0 0.0 0.00 0.00 0.00 58 1015.2
20260508073026 49 360 0.0 0.0 0.00 0.00 0.00 59 1015.2
20260508071523 49 360 0.0 0.0 0.00 0.00 0.00 60 1015.1
20260508070023 50 360 0.0 0.0 0.00 0.00 0.00 60 1014.9
20260508064521 50 360 0.0 0.0 0.00 0.00 0.00 59 1014.9
20260508063019 50 309 0.0 0.0 0.00 0.00 0.00 60 1014.8
20260508061519 51 309 0.0 0.0 0.00 0.00 0.00 59 1014.6
20260508060017 51 309 0.0 0.0 0.00 0.00 0.00 59 1014.9
20260508054518 51 309 0.0 0.0 0.00 0.00 0.00 60 1015.0
20260508053031 51 309 0.0 0.0 0.00 0.00 0.00 61 1014.9
20260508051513 51 308 0.0 1.0 0.00 0.00 0.00 62 1014.8
20260508050012 52 360 0.0 0.0 0.00 0.00 0.00 62 1014.6
20260508044509 53 360 0.0 0.0 0.00 0.00 0.00 61 1014.4
20260508043006 53 360 0.0 0.0 0.00 0.00 0.00 60 1014.3
20260508041504 54 308 0.0 0.0 0.00 0.00 0.00 59 1014.3
20260508040001 54 309 0.0 2.0 0.00 0.00 0.00 57 1014.4
20260508034603 55 360 0.0 0.0 0.00 0.00 0.00 56 1014.3
20260508033056 56 360 0.0 0.0 0.00 0.00 0.00 55 1014.2
20260508031558 56 311 0.0 0.0 0.00 0.00 0.00 55 1014.3
20260508030054 57 360 0.0 2.0 0.00 0.00 0.00 53 1014.3
20260508024604 58 311 0.0 2.0 0.00 0.00 0.00 52 1014.1
20260508023051 59 313 0.0 2.0 0.00 0.00 0.00 52 1014.0
20260508021547 59 311 1.0 2.0 0.00 0.00 0.00 51 1013.9
20260508020049 60 313 0.0 3.0 0.00 0.00 0.00 51 1013.4
20260508014545 60 313 1.0 4.0 0.00 0.00 0.00 48 1013.2
20260508013042 61 311 2.0 6.0 0.00 0.00 0.00 49 1012.9
20260508011550 62 360 0.0 7.0 0.00 0.00 0.00 47 1012.7
20260508010039 62 316 0.0 4.0 0.00 0.00 0.00 43 1012.4
20260508004540 63 282 3.0 9.0 0.00 0.00 0.00 42 1012.0
20260508003039 63 273 3.0 13.0 0.00 0.00 0.00 44 1011.5
20260508001540 64 269 6.0 16.0 0.00 0.00 0.00 43 1011.1
20260508000036 65 254 4.0 14.0 0.00 0.00 0.00 44 1011.2
20260507234537 65 261 3.0 10.0 0.00 0.00 0.00 46 1011.0
20260507233052 64 333 2.0 11.0 0.00 0.00 0.00 52 1010.5
20260507231538 64 289 2.0 11.0 0.00 0.00 0.00 60 1010.6
20260507230032 64 360 1.0 10.0 0.00 0.00 0.00 61 1010.2
20260507224532 65 329 7.0 14.0 0.00 0.00 0.00 60 1009.6
20260507223032 66 18 2.0 10.0 0.00 0.00 0.00 60 1009.1
20260507221535 68 337 4.0 14.0 0.00 0.00 0.00 58 1008.7
20260507220031 74 336 6.0 14.0 0.00 0.00 0.00 50 1008.4
20260507214530 77 225 1.0 14.0 0.00 0.00 0.00 43 1008.1
20260507213036 76 182 1.0 5.0 0.00 0.00 0.00 49 1007.8
20260507211530 75 173 1.0 8.0 0.00 0.00 0.00 50 1007.7
20260507210030 76 207 2.0 11.0 0.00 0.00 0.00 47 1007.5
20260507204530 77 163 2.0 10.0 0.00 0.00 0.00 47 1007.3
20260507203033 79 142 2.0 12.0 0.00 0.00 0.00 45 1007.4
20260507201529 81 204 2.0 10.0 0.00 0.00 0.00 44 1007.5
20260507200026 81 171 2.0 9.0 0.00 0.00 0.00 45 1007.3
20260507194536 81 155 3.0 9.0 0.00 0.00 0.00 44 1007.6
20260507193028 78 171 1.0 5.0 0.00 0.00 0.00 47 1008.0
20260507191530 77 181 0.0 10.0 0.00 0.00 0.00 54 1008.2
20260507190022 79 185 2.0 9.0 0.00 0.00 0.00 46 1008.3
20260507184519 78 157 3.0 13.0 0.00 0.00 0.00 46 1008.6
20260507183030 79 175 2.0 8.0 0.00 0.00 0.00 45 1008.6
20260507181517 79 180 2.0 8.0 0.00 0.00 0.00 46 1008.7
20260507180026 78 188 2.0 7.0 0.00 0.00 0.00 45 1008.6